Time;durP1;ratioP1;P1;durP2;ratioP2;P2;SDS_P1;SDS_P2;PMS_P1;PMS_P2;Temp;Humidity;BMP_temperature;BMP_pressure;BME280_temperature;BME280_humidity;BME280_pressure;Samples;Min_cycle;Max_cycle;Signal;HPM_P1;HPM_P2
2023/02/07 00:01:25;;;;;;;;;;;;;;;;;;5053119;28;1862;-43
2023/02/07 00:03:54;;;;;;;;;;;;;;;;;;5052522;28;1977;-45
2023/02/07 00:06:22;;;;;;;;;;;;;;;;;;5052542;28;2079;-46
2023/02/07 00:08:50;;;;;;;;;;;;;;;;;;5052380;28;1982;-44
2023/02/07 00:11:19;;;;;;;;;;;;;;;;;;5052454;28;2016;-47
2023/02/07 00:13:47;;;;;;;;;;;;;;;;;;5052473;28;1841;-48
2023/02/07 00:16:14;;;;;;;;;;;;;;;;;;5051857;28;1711;-45
2023/02/07 00:18:42;;;;;;;;;;;;;;;;;;5052170;28;2078;-47
2023/02/07 00:21:11;;;;;;;;;;;;;;;;;;5052433;28;2166;-44
2023/02/07 00:23:39;;;;;;;;;;;;;;;;;;5052038;28;2057;-45
2023/02/07 00:26:06;;;;;;;;;;;;;;;;;;5034788;28;2200;-48
2023/02/07 00:28:34;;;;;;;;;;;;;;;;;;5052515;28;2084;-51
2023/02/07 00:31:18;;;;;;;;;;;;;;;;;;5034132;28;2047;-47
2023/02/07 00:33:46;;;;;;;;;;;;;;;;;;5051791;28;1976;-50
2023/02/07 00:36:14;;;;;;;;;;;;;;;;;;5034200;28;2353;-50
2023/02/07 00:38:42;;;;;;;;;;;;;;;;;;5034057;28;1733;-46
2023/02/07 00:41:14;;;;;;;;;;;;;;;;;;5051995;28;2164;-49
2023/02/07 00:43:41;;;;;;;;;;;;;;;;;;5051662;28;1982;-50
2023/02/07 00:46:09;;;;;;;;;;;;;;;;;;5033755;28;2093;-42
2023/02/07 00:48:38;;;;;;;;;;;;;;;;;;5052029;28;2131;-46
2023/02/07 00:51:08;;;;;;;;;;;;;;;;;;5034040;28;1602;-49
2023/02/07 00:53:35;;;;;;;;;;;;;;;;;;5051892;28;2055;-48
2023/02/07 00:56:02;;;;;;;;;;;;;;;;;;5051645;28;2071;-46
2023/02/07 00:58:30;;;;;;;;;;;;;;;;;;5051480;28;1836;-48
2023/02/07 01:01:00;;;;;;;;;;;;;;;;;;5051374;28;1993;-46
2023/02/07 01:03:27;;;;;;;;;;;;;;;;;;5033427;28;2155;-43
2023/02/07 01:05:55;;;;;;;;;;;;;;;;;;5051357;28;2322;-49
2023/02/07 01:08:25;;;;;;;;;;;;;;;;;;5033617;28;1986;-48
2023/02/07 01:10:52;;;;;;;;;;;;;;;;;;5033145;28;2257;-48
2023/02/07 01:13:22;;;;;;;;;;;;;;;;;;5051242;28;2008;-47
2023/02/07 01:15:49;;;;;;;;;;;;;;;;;;5033250;28;1803;-47
2023/02/07 01:18:16;;;;;;;;;;;;;;;;;;5051301;28;1989;-49
2023/02/07 01:20:43;;;;;;;;;;;;;;;;;;5051353;28;1970;-45
2023/02/07 01:23:14;;;;;;;;;;;;;;;;;;5033077;28;2278;-45
2023/02/07 01:25:43;;;;;;;;;;;;;;;;;;5051074;28;1502;-52
2023/02/07 01:28:11;;;;;;;;;;;;;;;;;;5051134;28;2028;-47
2023/02/07 01:30:39;;;;;;;;;;;;;;;;;;5051275;28;2128;-45
2023/02/07 01:33:06;;;;;;;;;;;;;;;;;;5051476;28;1473;-49
2023/02/07 01:35:34;;;;;;;;;;;;;;;;;;5050534;28;2023;-45
2023/02/07 01:38:02;;;;;;;;;;;;;;;;;;5033078;28;1874;-47
2023/02/07 01:40:30;;;;;;;;;;;;;;;;;;5050687;28;1872;-46
2023/02/07 01:42:58;;;;;;;;;;;;;;;;;;5050887;28;2102;-51
2023/02/07 01:45:28;;;;;;;;;;;;;;;;;;5050624;28;2027;-47
2023/02/07 01:47:57;;;;;;;;;;;;;;;;;;5050914;28;1788;-48
2023/02/07 01:50:25;;;;;;;;;;;;;;;;;;5050714;28;2044;-46
2023/02/07 01:52:53;;;;;;;;;;;;;;;;;;5050412;28;2004;-51
2023/02/07 01:55:24;;;;;;;;;;;;;;;;;;5050789;28;2326;-45
2023/02/07 01:57:52;;;;;;;;;;;;;;;;;;5052712;28;1651;-45
2023/02/07 02:00:22;;;;;;;;;;;;;;;;;;5054977;28;2383;-49
2023/02/07 02:02:50;;;;;;;;;;;;;;;;;;5054683;28;2026;-47
2023/02/07 02:05:18;;;;;;;;;;;;;;;;;;5053335;28;2181;-43
2023/02/07 02:07:45;;;;;;;;;;;;;;;;;;5054714;28;1607;-48
2023/02/07 02:10:20;;;;;;;;;;;;;;;;;;5054917;28;2164;-49
2023/02/07 02:12:57;;;;;;;;;;;;;;;;;;5036664;28;1822;-48
2023/02/07 02:15:24;;;;;;;;;;;;;;;;;;5054487;28;1717;-44
2023/02/07 02:17:54;;;;;;;;;;;;;;;;;;5054393;28;2229;-47
2023/02/07 02:20:39;;;;;;;;;;;;;;;;;;5070072;28;1733;-45
2023/02/07 02:23:31;;;;;;;;;;;;;;;;;;5036382;28;1975;-46
2023/02/07 02:26:18;;;;;;;;;;;;;;;;;;5054378;28;1751;-44
2023/02/07 02:28:51;;;;;;;;;;;;;;;;;;5033156;28;1897;-44
2023/02/07 02:31:28;;;;;;;;;;;;;;;;;;5049627;28;1616;-43
2023/02/07 02:34:22;;;;;;;;;;;;;;;;;;5034337;28;1761;-46
2023/02/07 02:36:55;;;;;;;;;;;;;;;;;;5032502;28;2109;-44
2023/02/07 02:39:29;;;;;;;;;;;;;;;;;;5016383;28;1851;-47
2023/02/07 02:41:56;;;;;;;;;;;;;;;;;;5034112;28;1673;-48
2023/02/07 02:44:28;;;;;;;;;;;;;;;;;;5033923;28;2138;-48
2023/02/07 02:46:56;;;;;;;;;;;;;;;;;;5016329;28;2016;-43
2023/02/07 02:49:23;;;;;;;;;;;;;;;;;;5016130;28;2015;-47
2023/02/07 02:51:51;;;;;;;;;;;;;;;;;;5042773;28;1977;-51
2023/02/07 02:54:26;;;;;;;;;;;;;;;;;;5035898;28;1714;-45
2023/02/07 02:57:09;;;;;;;;;;;;;;;;;;5035823;28;1763;-44
2023/02/07 02:59:48;;;;;;;;;;;;;;;;;;5035511;28;1875;-53
2023/02/07 03:02:39;;;;;;;;;;;;;;;;;;5035775;28;2204;-46
2023/02/07 03:05:25;;;;;;;;;;;;;;;;;;5034693;28;2165;-47
2023/02/07 03:08:11;;;;;;;;;;;;;;;;;;5053939;28;1784;-44
2023/02/07 03:10:41;;;;;;;;;;;;;;;;;;5035018;28;1755;-48
2023/02/07 03:13:08;;;;;;;;;;;;;;;;;;5053615;28;2121;-46
2023/02/07 03:15:50;;;;;;;;;;;;;;;;;;5048510;28;1646;-48
2023/02/07 03:18:20;;;;;;;;;;;;;;;;;;5015687;28;2044;-43
2023/02/07 03:20:51;;;;;;;;;;;;;;;;;;5033264;28;1987;-44
2023/02/07 03:23:19;;;;;;;;;;;;;;;;;;5033445;28;2315;-43
2023/02/07 03:25:47;;;;;;;;;;;;;;;;;;5033462;28;1654;-47
2023/02/07 03:28:17;;;;;;;;;;;;;;;;;;5033409;28;2020;-51
2023/02/07 03:30:49;;;;;;;;;;;;;;;;;;5033553;28;2108;-47
2023/02/07 03:33:16;;;;;;;;;;;;;;;;;;5033230;28;2082;-50
2023/02/07 03:35:51;;;;;;;;;;;;;;;;;;5033359;28;1872;-50
2023/02/07 03:38:19;;;;;;;;;;;;;;;;;;5033206;28;1698;-43
2023/02/07 03:40:47;;;;;;;;;;;;;;;;;;5033272;28;2136;-45
2023/02/07 03:43:17;;;;;;;;;;;;;;;;;;5033217;28;1620;-42
2023/02/07 03:45:44;;;;;;;;;;;;;;;;;;5033106;28;2037;-41
2023/02/07 03:48:12;;;;;;;;;;;;;;;;;;5032903;28;2071;-42
2023/02/07 03:50:39;;;;;;;;;;;;;;;;;;5015464;28;2301;-42
2023/02/07 03:53:06;;;;;;;;;;;;;;;;;;5032905;28;1870;-42
2023/02/07 03:55:33;;;;;;;;;;;;;;;;;;5032849;28;1843;-42
2023/02/07 03:58:00;;;;;;;;;;;;;;;;;;5032700;28;2010;-43
2023/02/07 04:00:28;;;;;;;;;;;;;;;;;;5032758;28;1913;-44
2023/02/07 04:02:55;;;;;;;;;;;;;;;;;;5040483;28;1671;-42
2023/02/07 04:05:22;;;;;;;;;;;;;;;;;;5052415;28;2155;-43
2023/02/07 04:07:49;;;;;;;;;;;;;;;;;;5052766;28;2123;-42
2023/02/07 04:10:16;;;;;;;;;;;;;;;;;;5052676;28;2069;-43
2023/02/07 04:12:44;;;;;;;;;;;;;;;;;;5052452;28;2102;-45
2023/02/07 04:15:11;;;;;;;;;;;;;;;;;;5052319;28;1643;-43
2023/02/07 04:17:38;;;;;;;;;;;;;;;;;;5052488;28;1709;-44
2023/02/07 04:20:06;;;;;;;;;;;;;;;;;;5051948;28;2103;-44
2023/02/07 04:22:33;;;;;;;;;;;;;;;;;;5052271;28;1983;-44
2023/02/07 04:25:00;;;;;;;;;;;;;;;;;;5052208;28;1978;-43
2023/02/07 04:27:27;;;;;;;;;;;;;;;;;;5051352;28;1993;-42
2023/02/07 04:29:55;;;;;;;;;;;;;;;;;;5052067;28;2029;-43
2023/02/07 04:32:22;;;;;;;;;;;;;;;;;;5052255;28;1996;-46
2023/02/07 04:34:49;;;;;;;;;;;;;;;;;;5051999;28;2037;-43
2023/02/07 04:37:16;;;;;;;;;;;;;;;;;;5052001;28;1822;-42
2023/02/07 04:39:43;;;;;;;;;;;;;;;;;;5051644;28;1465;-44
2023/02/07 04:42:10;;;;;;;;;;;;;;;;;;5051896;28;2263;-43
2023/02/07 04:44:38;;;;;;;;;;;;;;;;;;5051627;28;1913;-43
2023/02/07 04:47:05;;;;;;;;;;;;;;;;;;5067027;28;1587;-46
2023/02/07 04:49:32;;;;;;;;;;;;;;;;;;5051915;28;1824;-45
2023/02/07 04:52:00;;;;;;;;;;;;;;;;;;5051700;28;1824;-43
2023/02/07 04:54:27;;;;;;;;;;;;;;;;;;5051614;28;1988;-43
2023/02/07 04:56:54;;;;;;;;;;;;;;;;;;5034097;28;2162;-43
2023/02/07 04:59:24;;;;;;;;;;;;;;;;;;5051835;28;1272;-43
2023/02/07 05:01:51;;;;;;;;;;;;;;;;;;5051658;28;1938;-43
2023/02/07 05:04:18;;;;;;;;;;;;;;;;;;5051311;28;2034;-43
2023/02/07 05:06:45;;;;;;;;;;;;;;;;;;5051249;28;2162;-45
2023/02/07 05:09:12;;;;;;;;;;;;;;;;;;5051288;28;1997;-43
2023/02/07 05:11:40;;;;;;;;;;;;;;;;;;5051460;28;2002;-43
2023/02/07 05:14:07;;;;;;;;;;;;;;;;;;5051173;28;2214;-45
2023/02/07 05:16:34;;;;;;;;;;;;;;;;;;5033672;28;1754;-44
2023/02/07 05:19:04;;;;;;;;;;;;;;;;;;5033750;28;1864;-43
2023/02/07 05:21:31;;;;;;;;;;;;;;;;;;5051036;28;1976;-44
2023/02/07 05:23:58;;;;;;;;;;;;;;;;;;5051113;28;1907;-45
2023/02/07 05:26:25;;;;;;;;;;;;;;;;;;5051271;28;2160;-44
2023/02/07 05:28:52;;;;;;;;;;;;;;;;;;5051272;28;2252;-43
2023/02/07 05:31:20;;;;;;;;;;;;;;;;;;5050662;28;1945;-44
2023/02/07 05:33:47;;;;;;;;;;;;;;;;;;5050808;28;1746;-44
2023/02/07 05:36:14;;;;;;;;;;;;;;;;;;5050797;28;1862;-42
2023/02/07 05:38:41;;;;;;;;;;;;;;;;;;5051025;28;2045;-43
2023/02/07 05:41:08;;;;;;;;;;;;;;;;;;5050804;28;1697;-44
2023/02/07 05:43:36;;;;;;;;;;;;;;;;;;5051043;28;1951;-43
2023/02/07 05:46:03;;;;;;;;;;;;;;;;;;5050710;28;1902;-44
2023/02/07 05:48:30;;;;;;;;;;;;;;;;;;5050902;28;2233;-44
2023/02/07 05:50:57;;;;;;;;;;;;;;;;;;5050833;28;1827;-42
2023/02/07 05:53:25;;;;;;;;;;;;;;;;;;5050885;28;1675;-43
2023/02/07 05:55:55;;;;;;;;;;;;;;;;;;5051000;28;1837;-43
2023/02/07 05:58:22;;;;;;;;;;;;;;;;;;5050733;28;1974;-43
2023/02/07 06:00:49;;;;;;;;;;;;;;;;;;5050840;28;1659;-46
2023/02/07 06:03:16;;;;;;;;;;;;;;;;;;5050589;28;2045;-47
2023/02/07 06:05:43;;;;;;;;;;;;;;;;;;5032771;28;2136;-43
2023/02/07 06:08:11;;;;;;;;;;;;;;;;;;5050743;28;1822;-44
2023/02/07 06:10:40;;;;;;;;;;;;;;;;;;5050627;28;1698;-46
2023/02/07 06:13:07;;;;;;;;;;;;;;;;;;5050727;28;1770;-43
2023/02/07 06:15:34;;;;;;;;;;;;;;;;;;5050309;28;1916;-42
2023/02/07 06:18:01;;;;;;;;;;;;;;;;;;5050727;28;1381;-43
2023/02/07 06:20:28;;;;;;;;;;;;;;;;;;5050729;28;2130;-44
2023/02/07 06:22:55;;;;;;;;;;;;;;;;;;5050692;28;2016;-44
2023/02/07 06:25:23;;;;;;;;;;;;;;;;;;5050481;28;1975;-43
2023/02/07 06:27:50;;;;;;;;;;;;;;;;;;5050327;28;2084;-44
2023/02/07 06:30:17;;;;;;;;;;;;;;;;;;5041955;28;2106;-42
2023/02/07 06:32:44;;;;;;;;;;;;;;;;;;5029114;28;1941;-44
2023/02/07 06:35:12;;;;;;;;;;;;;;;;;;5030738;28;2332;-43
2023/02/07 06:37:39;;;;;;;;;;;;;;;;;;5030693;28;2063;-43
2023/02/07 06:40:06;;;;;;;;;;;;;;;;;;5030439;28;2291;-44
2023/02/07 06:42:33;;;;;;;;;;;;;;;;;;5030482;28;1720;-46
2023/02/07 06:45:00;;;;;;;;;;;;;;;;;;5033965;28;2242;-43
2023/02/07 06:47:28;;;;;;;;;;;;;;;;;;5034463;28;1831;-43
2023/02/07 06:49:55;;;;;;;;;;;;;;;;;;5034028;28;1858;-43
2023/02/07 06:52:22;;;;;;;;;;;;;;;;;;5034072;28;2000;-43
2023/02/07 06:54:49;;;;;;;;;;;;;;;;;;5033915;28;1530;-43
2023/02/07 06:57:16;;;;;;;;;;;;;;;;;;5033795;28;1927;-43
2023/02/07 06:59:43;;;;;;;;;;;;;;;;;;5034128;28;1743;-46
2023/02/07 07:02:11;;;;;;;;;;;;;;;;;;5035039;28;1943;-43
2023/02/07 07:04:39;;;;;;;;;;;;;;;;;;5036002;28;2235;-43
2023/02/07 07:07:06;;;;;;;;;;;;;;;;;;5053910;28;1500;-43
2023/02/07 07:09:33;;;;;;;;;;;;;;;;;;5053599;28;1652;-42
2023/02/07 07:12:01;;;;;;;;;;;;;;;;;;5053092;28;1583;-43
2023/02/07 07:14:28;;;;;;;;;;;;;;;;;;5053934;28;1986;-43
2023/02/07 07:16:55;;;;;;;;;;;;;;;;;;5053432;28;2089;-42
2023/02/07 07:19:23;;;;;;;;;;;;;;;;;;5053524;28;1845;-43
2023/02/07 07:21:50;;;;;;;;;;;;;;;;;;5053527;28;1588;-42
2023/02/07 07:24:18;;;;;;;;;;;;;;;;;;5053045;28;2016;-43
2023/02/07 07:26:45;;;;;;;;;;;;;;;;;;5053544;28;2015;-44
2023/02/07 07:29:16;;;;;;;;;;;;;;;;;;5053099;28;1684;-43
2023/02/07 07:31:44;;;;;;;;;;;;;;;;;;5052905;28;2197;-43
2023/02/07 07:34:12;;;;;;;;;;;;;;;;;;5053224;28;1530;-44
2023/02/07 07:36:39;;;;;;;;;;;;;;;;;;5052922;28;1990;-42
2023/02/07 07:39:07;;;;;;;;;;;;;;;;;;5053308;28;2146;-43
2023/02/07 07:41:35;;;;;;;;;;;;;;;;;;5053118;28;1817;-43
2023/02/07 07:44:02;;;;;;;;;;;;;;;;;;5053328;28;1683;-43
2023/02/07 07:46:29;;;;;;;;;;;;;;;;;;5052573;28;1912;-43
2023/02/07 07:48:57;;;;;;;;;;;;;;;;;;5052773;28;2131;-43
2023/02/07 07:51:24;;;;;;;;;;;;;;;;;;5052726;28;1641;-44
2023/02/07 07:53:51;;;;;;;;;;;;;;;;;;5052732;28;2244;-46
2023/02/07 07:56:18;;;;;;;;;;;;;;;;;;5034256;28;2068;-44
2023/02/07 07:58:47;;;;;;;;;;;;;;;;;;5052904;28;1443;-44
2023/02/07 08:01:14;;;;;;;;;;;;;;;;;;5052438;28;1842;-42
2023/02/07 08:03:41;;;;;;;;;;;;;;;;;;5052572;28;2064;-45
2023/02/07 08:06:08;;;;;;;;;;;;;;;;;;5052403;28;2064;-43
2023/02/07 08:08:36;;;;;;;;;;;;;;;;;;5052671;28;1916;-46
2023/02/07 08:11:04;;;;;;;;;;;;;;;;;;5052782;28;2107;-43
2023/02/07 08:13:32;;;;;;;;;;;;;;;;;;5052503;28;2137;-43
2023/02/07 08:16:00;;;;;;;;;;;;;;;;;;5052478;28;1926;-43
2023/02/07 08:18:28;;;;;;;;;;;;;;;;;;5052146;28;2330;-43
2023/02/07 08:20:55;;;;;;;;;;;;;;;;;;5052392;28;1725;-43
2023/02/07 08:23:22;;;;;;;;;;;;;;;;;;5052451;28;1835;-43
2023/02/07 08:25:49;;;;;;;;;;;;;;;;;;5051923;28;1978;-45
2023/02/07 08:28:17;;;;;;;;;;;;;;;;;;5052130;28;1944;-42
2023/02/07 08:30:47;;;;;;;;;;;;;;;;;;5051723;28;1979;-43
2023/02/07 08:33:15;;;;;;;;;;;;;;;;;;5051863;28;2019;-44
2023/02/07 08:35:42;;;;;;;;;;;;;;;;;;5051924;28;1805;-43
2023/02/07 08:38:09;;;;;;;;;;;;;;;;;;5051837;28;1946;-43
2023/02/07 08:40:37;;;;;;;;;;;;;;;;;;5034295;28;2187;-43
2023/02/07 08:43:11;;;;;;;;;;;;;;;;;;5052150;28;1919;-44
2023/02/07 08:45:42;;;;;;;;;;;;;;;;;;5051834;28;2275;-43
2023/02/07 08:48:09;;;;;;;;;;;;;;;;;;5051796;28;1816;-43
2023/02/07 08:50:36;;;;;;;;;;;;;;;;;;5051984;28;1821;-44
2023/02/07 08:53:04;;;;;;;;;;;;;;;;;;5052294;28;2045;-43
2023/02/07 08:55:32;;;;;;;;;;;;;;;;;;5051714;28;1774;-43
2023/02/07 08:57:59;;;;;;;;;;;;;;;;;;5051624;28;1965;-43
2023/02/07 09:00:26;;;;;;;;;;;;;;;;;;5051688;28;2085;-44
2023/02/07 09:02:54;;;;;;;;;;;;;;;;;;5051217;28;1838;-43
2023/02/07 09:05:21;;;;;;;;;;;;;;;;;;5051430;28;1976;-47
2023/02/07 09:07:48;;;;;;;;;;;;;;;;;;5050582;28;2011;-42
2023/02/07 09:10:15;;;;;;;;;;;;;;;;;;5051458;28;1999;-43
2023/02/07 09:12:42;;;;;;;;;;;;;;;;;;5051249;28;1824;-43
2023/02/07 09:15:10;;;;;;;;;;;;;;;;;;5051727;28;2103;-43
2023/02/07 09:17:37;;;;;;;;;;;;;;;;;;5051481;28;2038;-43
2023/02/07 09:20:04;;;;;;;;;;;;;;;;;;5051211;28;1862;-45
2023/02/07 09:23:16;;;;;;;;;;;;;;;;;;5051102;28;1747;-48
2023/02/07 09:25:19;;;;;;;;;;;;;;;;;;5051057;28;1923;-44
2023/02/07 09:27:46;;;;;;;;;;;;;;;;;;5051286;28;2356;-44
2023/02/07 09:30:13;;;;;;;;;;;;;;;;;;5051191;28;2328;-43
2023/02/07 09:32:41;;;;;;;;;;;;;;;;;;5051472;28;1911;-43
2023/02/07 09:35:08;;;;;;;;;;;;;;;;;;5050861;28;2232;-43
2023/02/07 09:37:35;;;;;;;;;;;;;;;;;;5051096;28;1799;-44
2023/02/07 09:40:17;;;;;;;;;;;;;;;;;;5050913;28;2079;-43
2023/02/07 09:43:02;;;;;;;;;;;;;;;;;;5051090;28;2285;-43
2023/02/07 09:45:31;;;;;;;;;;;;;;;;;;5050568;28;1973;-43
2023/02/07 09:48:02;;;;;;;;;;;;;;;;;;5050962;28;2025;-43
2023/02/07 09:50:33;;;;;;;;;;;;;;;;;;5051109;28;1979;-43
2023/02/07 09:53:20;;;;;;;;;;;;;;;;;;5050918;28;2000;-42
2023/02/07 09:55:53;;;;;;;;;;;;;;;;;;5050881;28;1590;-45
2023/02/07 09:58:27;;;;;;;;;;;;;;;;;;5050610;28;2135;-46
2023/02/07 10:01:02;;;;;;;;;;;;;;;;;;5050677;28;1974;-47
2023/02/07 10:03:30;;;;;;;;;;;;;;;;;;5050774;28;1563;-44
2023/02/07 10:06:03;;;;;;;;;;;;;;;;;;5050329;28;1975;-42
2023/02/07 10:08:46;;;;;;;;;;;;;;;;;;5050876;28;1385;-43
2023/02/07 10:11:33;;;;;;;;;;;;;;;;;;5050910;28;2200;-44
2023/02/07 10:14:12;;;;;;;;;;;;;;;;;;5050651;28;1412;-43
2023/02/07 10:17:00;;;;;;;;;;;;;;;;;;5050936;28;1960;-44
2023/02/07 10:19:49;;;;;;;;;;;;;;;;;;5053572;28;2163;-49
2023/02/07 10:22:37;;;;;;;;;;;;;;;;;;5054398;28;2137;-43
2023/02/07 10:25:13;;;;;;;;;;;;;;;;;;5054880;28;2093;-44
2023/02/07 10:27:56;;;;;;;;;;;;;;;;;;5054393;28;1811;-45
2023/02/07 10:30:26;;;;;;;;;;;;;;;;;;5054347;28;1841;-43
2023/02/07 10:32:58;;;;;;;;;;;;;;;;;;5054087;28;2044;-43
2023/02/07 10:35:36;;;;;;;;;;;;;;;;;;5054228;28;1657;-43
2023/02/07 10:38:10;;;;;;;;;;;;;;;;;;5054132;28;2300;-43
2023/02/07 10:40:47;;;;;;;;;;;;;;;;;;5054228;28;1690;-43
2023/02/07 10:43:26;;;;;;;;;;;;;;;;;;5054411;28;1906;-47
2023/02/07 10:45:59;;;;;;;;;;;;;;;;;;5053711;28;1977;-53
2023/02/07 10:48:32;;;;;;;;;;;;;;;;;;5054612;28;2058;-43
2023/02/07 10:50:59;;;;;;;;;;;;;;;;;;5053960;28;1870;-44
2023/02/07 10:53:44;;;;;;;;;;;;;;;;;;5054124;28;1834;-44
2023/02/07 10:56:25;;;;;;;;;;;;;;;;;;5054151;28;2145;-42
2023/02/07 10:58:58;;;;;;;;;;;;;;;;;;5053711;28;1368;-44
2023/02/07 11:01:27;;;;;;;;;;;;;;;;;;5053987;28;2010;-46
2023/02/07 11:03:54;;;;;;;;;;;;;;;;;;5053847;28;2199;-43
2023/02/07 11:06:31;;;;;;;;;;;;;;;;;;5035699;28;2337;-43
2023/02/07 11:09:19;;;;;;;;;;;;;;;;;;5053784;28;2175;-43
2023/02/07 11:11:47;;;;;;;;;;;;;;;;;;5053283;28;1833;-43
2023/02/07 11:14:16;;;;;;;;;;;;;;;;;;5053693;28;2160;-43
2023/02/07 11:16:44;;;;;;;;;;;;;;;;;;5053204;28;2129;-43
2023/02/07 11:19:17;;;;;;;;;;;;;;;;;;5053371;28;2050;-42
2023/02/07 11:21:47;;;;;;;;;;;;;;;;;;5053343;28;1814;-43
2023/02/07 11:24:18;;;;;;;;;;;;;;;;;;5053664;28;1735;-44
2023/02/07 11:26:52;;;;;;;;;;;;;;;;;;5053745;28;1953;-44
2023/02/07 11:29:20;;;;;;;;;;;;;;;;;;5052769;28;2143;-43
2023/02/07 11:31:48;;;;;;;;;;;;;;;;;;5053117;28;1878;-43
2023/02/07 11:34:22;;;;;;;;;;;;;;;;;;5053460;28;1807;-51
2023/02/07 11:36:50;;;;;;;;;;;;;;;;;;5052984;28;2055;-43
2023/02/07 11:39:18;;;;;;;;;;;;;;;;;;5053561;28;1731;-50
2023/02/07 11:41:54;;;;;;;;;;;;;;;;;;5053318;28;2137;-44
2023/02/07 11:44:23;;;;;;;;;;;;;;;;;;5052909;28;1930;-43
2023/02/07 11:46:52;;;;;;;;;;;;;;;;;;5035204;28;1998;-43
2023/02/07 11:49:22;;;;;;;;;;;;;;;;;;5053221;28;1920;-50
2023/02/07 11:51:51;;;;;;;;;;;;;;;;;;5053264;28;2303;-43
2023/02/07 11:54:18;;;;;;;;;;;;;;;;;;5052911;28;1695;-43
2023/02/07 11:56:50;;;;;;;;;;;;;;;;;;5053007;28;2157;-49
2023/02/07 11:59:19;;;;;;;;;;;;;;;;;;5052848;28;1618;-44
2023/02/07 12:02:03;;;;;;;;;;;;;;;;;;5053222;28;2244;-51
2023/02/07 12:04:34;;;;;;;;;;;;;;;;;;5032828;28;1670;-53
2023/02/07 12:07:08;;;;;;;;;;;;;;;;;;5032383;28;2083;-43
2023/02/07 12:09:39;;;;;;;;;;;;;;;;;;5032625;28;1286;-44
2023/02/07 12:12:14;;;;;;;;;;;;;;;;;;5032822;28;2235;-44
2023/02/07 12:14:46;;;;;;;;;;;;;;;;;;5032796;28;1825;-44
2023/02/07 12:17:16;;;;;;;;;;;;;;;;;;5032662;28;2048;-44
2023/02/07 12:20:08;;;;;;;;;;;;;;;;;;5032636;28;1928;-48
2023/02/07 12:22:40;;;;;;;;;;;;;;;;;;5023085;28;1704;-43
2023/02/07 12:25:20;;;;;;;;;;;;;;;;;;5032334;28;1413;-45
2023/02/07 12:27:50;;;;;;;;;;;;;;;;;;5032525;28;1969;-44
2023/02/07 12:30:33;;;;;;;;;;;;;;;;;;5032235;28;1402;-44
2023/02/07 12:33:01;;;;;;;;;;;;;;;;;;5032437;28;1903;-43
2023/02/07 12:35:35;;;;;;;;;;;;;;;;;;5032310;28;1387;-44
2023/02/07 12:38:20;;;;;;;;;;;;;;;;;;5031907;28;1808;-43
2023/02/07 12:40:58;;;;;;;;;;;;;;;;;;5031731;28;1676;-44
2023/02/07 12:43:28;;;;;;;;;;;;;;;;;;5031964;28;1638;-43
2023/02/07 12:46:02;;;;;;;;;;;;;;;;;;5031828;28;1989;-43
2023/02/07 12:48:35;;;;;;;;;;;;;;;;;;5032093;28;1981;-43
2023/02/07 12:51:11;;;;;;;;;;;;;;;;;;5031938;28;1922;-43
2023/02/07 12:53:57;;;;;;;;;;;;;;;;;;5031908;28;1850;-52
2023/02/07 12:56:43;;;;;;;;;;;;;;;;;;5031722;28;2016;-44
2023/02/07 12:59:34;;;;;;;;;;;;;;;;;;5031840;28;1821;-54
2023/02/07 13:02:01;;;;;;;;;;;;;;;;;;4995093;28;2028;-48
2023/02/07 13:04:39;;;;;;;;;;;;;;;;;;5051768;28;2012;-44
2023/02/07 13:07:21;;;;;;;;;;;;;;;;;;5051128;28;1959;-45
2023/02/07 13:09:51;;;;;;;;;;;;;;;;;;5051380;28;1773;-54
2023/02/07 13:12:23;;;;;;;;;;;;;;;;;;5051126;28;1791;-47
2023/02/07 13:14:59;;;;;;;;;;;;;;;;;;5051537;28;1691;-43
2023/02/07 13:17:45;;;;;;;;;;;;;;;;;;5051485;28;1703;-50
2023/02/07 13:20:33;;;;;;;;;;;;;;;;;;5052053;28;1868;-49
2023/02/07 13:23:02;;;;;;;;;;;;;;;;;;5051390;28;1932;-47
2023/02/07 13:25:38;;;;;;;;;;;;;;;;;;5051301;28;1854;-49
2023/02/07 13:28:12;;;;;;;;;;;;;;;;;;5050914;28;2148;-45
2023/02/07 13:30:40;;;;;;;;;;;;;;;;;;5051195;28;1434;-45
2023/02/07 13:33:33;;;;;;;;;;;;;;;;;;5050911;28;2171;-45
2023/02/07 13:36:10;;;;;;;;;;;;;;;;;;5049240;28;1690;-44
2023/02/07 13:38:57;;;;;;;;;;;;;;;;;;5051287;28;2244;-50
2023/02/07 13:41:32;;;;;;;;;;;;;;;;;;5050856;28;2078;-44
2023/02/07 13:44:00;;;;;;;;;;;;;;;;;;5051073;28;1390;-49
2023/02/07 13:46:36;;;;;;;;;;;;;;;;;;5050715;28;2324;-52
2023/02/07 13:49:12;;;;;;;;;;;;;;;;;;5050976;28;2243;-44
2023/02/07 13:51:50;;;;;;;;;;;;;;;;;;5050934;28;1918;-46
2023/02/07 13:54:29;;;;;;;;;;;;;;;;;;5056497;28;1663;-46
2023/02/07 14:00:06;;;;;;;;;;;;;;;;;;5057907;28;1623;-45
2023/02/07 14:02:39;;;;;;;;;;;;;;;;;;5057603;28;1702;-45
2023/02/07 14:05:08;;;;;;;;;;;;;;;;;;5057523;28;2253;-49
2023/02/07 14:07:36;;;;;;;;;;;;;;;;;;5057587;28;1916;-50
2023/02/07 14:10:05;;;;;;;;;;;;;;;;;;5057466;28;1934;-45
2023/02/07 14:12:33;;;;;;;;;;;;;;;;;;5057198;28;2116;-46
2023/02/07 14:15:19;;;;;;;;;;;;;;;;;;5057390;28;2165;-45
2023/02/07 14:17:55;;;;;;;;;;;;;;;;;;5057521;28;1717;-45
2023/02/07 14:20:45;;;;;;;;;;;;;;;;;;5057307;28;1865;-46
2023/02/07 14:23:17;;;;;;;;;;;;;;;;;;5052065;28;2014;-53
2023/02/07 14:25:45;;;;;;;;;;;;;;;;;;5057478;28;1943;-48
2023/02/07 14:28:17;;;;;;;;;;;;;;;;;;5057223;28;2230;-43
2023/02/07 14:30:48;;;;;;;;;;;;;;;;;;5057237;28;1841;-46
2023/02/07 14:33:16;;;;;;;;;;;;;;;;;;5057210;28;1982;-44
2023/02/07 14:35:45;;;;;;;;;;;;;;;;;;5057164;28;1593;-46
2023/02/07 14:38:38;;;;;;;;;;;;;;;;;;5057307;28;1928;-48
2023/02/07 14:41:08;;;;;;;;;;;;;;;;;;5055667;28;1581;-47
2023/02/07 14:43:40;;;;;;;;;;;;;;;;;;5056965;28;1959;-48
2023/02/07 14:46:10;;;;;;;;;;;;;;;;;;5057072;28;1589;-46
2023/02/07 14:48:39;;;;;;;;;;;;;;;;;;5039367;28;2015;-50
2023/02/07 14:51:25;;;;;;;;;;;;;;;;;;5057240;28;2140;-50
2023/02/07 14:54:05;;;;;;;;;;;;;;;;;;5057043;28;2030;-50
2023/02/07 14:56:43;;;;;;;;;;;;;;;;;;5056943;28;1982;-44
2023/02/07 14:59:13;;;;;;;;;;;;;;;;;;5057168;28;1707;-48
2023/02/07 15:01:41;;;;;;;;;;;;;;;;;;5056970;28;1985;-44
2023/02/07 15:04:10;;;;;;;;;;;;;;;;;;5056248;28;2069;-46
2023/02/07 15:06:42;;;;;;;;;;;;;;;;;;5053747;28;1965;-44
2023/02/07 15:09:20;;;;;;;;;;;;;;;;;;5053694;28;1856;-44
2023/02/07 15:11:48;;;;;;;;;;;;;;;;;;5053778;28;1514;-47
2023/02/07 15:14:31;;;;;;;;;;;;;;;;;;5054053;28;1770;-46
2023/02/07 15:16:59;;;;;;;;;;;;;;;;;;5053730;28;1781;-46
2023/02/07 15:19:37;;;;;;;;;;;;;;;;;;5053363;28;1700;-43
2023/02/07 15:22:05;;;;;;;;;;;;;;;;;;5053430;28;1935;-47
2023/02/07 15:24:46;;;;;;;;;;;;;;;;;;5053440;28;1897;-46
2023/02/07 15:27:22;;;;;;;;;;;;;;;;;;5053503;28;1971;-48
2023/02/07 15:30:15;;;;;;;;;;;;;;;;;;5052982;28;1921;-44
2023/02/07 15:32:45;;;;;;;;;;;;;;;;;;5049946;28;2237;-51
2023/02/07 15:35:12;;;;;;;;;;;;;;;;;;5053222;28;1810;-43
2023/02/07 15:37:40;;;;;;;;;;;;;;;;;;5053019;28;1767;-44
2023/02/07 15:40:12;;;;;;;;;;;;;;;;;;5053000;28;1938;-50
2023/02/07 15:42:48;;;;;;;;;;;;;;;;;;5053144;28;2122;-47
2023/02/07 15:45:22;;;;;;;;;;;;;;;;;;5052871;28;1812;-46
2023/02/07 15:47:57;;;;;;;;;;;;;;;;;;5053072;28;1914;-44
2023/02/07 15:50:26;;;;;;;;;;;;;;;;;;5052891;28;1764;-45
2023/02/07 15:52:54;;;;;;;;;;;;;;;;;;5052909;28;1953;-44
2023/02/07 15:55:36;;;;;;;;;;;;;;;;;;5052842;28;1795;-46
2023/02/07 15:58:04;;;;;;;;;;;;;;;;;;5052853;28;1952;-48
2023/02/07 16:00:38;;;;;;;;;;;;;;;;;;5053189;28;1742;-47
2023/02/07 16:03:11;;;;;;;;;;;;;;;;;;5052483;28;1832;-48
2023/02/07 16:05:41;;;;;;;;;;;;;;;;;;5053047;28;2219;-46
2023/02/07 16:08:26;;;;;;;;;;;;;;;;;;5052494;28;1906;-48
2023/02/07 16:10:53;;;;;;;;;;;;;;;;;;5052591;28;1749;-44
2023/02/07 16:13:21;;;;;;;;;;;;;;;;;;5052400;28;1724;-44
2023/02/07 16:15:55;;;;;;;;;;;;;;;;;;5034082;28;2081;-49
2023/02/07 16:18:52;;;;;;;;;;;;;;;;;;5052610;28;1524;-45
2023/02/07 16:21:21;;;;;;;;;;;;;;;;;;5043746;28;1603;-49
2023/02/07 16:23:50;;;;;;;;;;;;;;;;;;5052445;28;1694;-50
2023/02/07 16:26:18;;;;;;;;;;;;;;;;;;5052173;28;1797;-47
2023/02/07 16:28:46;;;;;;;;;;;;;;;;;;5042920;28;2331;-43
2023/02/07 16:31:13;;;;;;;;;;;;;;;;;;5032130;28;2304;-48
2023/02/07 16:33:40;;;;;;;;;;;;;;;;;;5032329;28;2012;-49
2023/02/07 16:36:14;;;;;;;;;;;;;;;;;;5032375;28;2133;-45
2023/02/07 16:38:42;;;;;;;;;;;;;;;;;;5031075;28;1979;-45
2023/02/07 16:41:35;;;;;;;;;;;;;;;;;;5031721;28;1953;-49
2023/02/07 16:44:05;;;;;;;;;;;;;;;;;;5028885;28;1990;-47
2023/02/07 16:46:32;;;;;;;;;;;;;;;;;;5031644;28;1674;-48
2023/02/07 16:49:00;;;;;;;;;;;;;;;;;;5032011;28;1910;-50
2023/02/07 16:51:27;;;;;;;;;;;;;;;;;;5014309;28;1783;-47
2023/02/07 16:53:54;;;;;;;;;;;;;;;;;;5031983;28;1985;-46
2023/02/07 16:56:25;;;;;;;;;;;;;;;;;;5031792;28;2071;-46
2023/02/07 16:58:56;;;;;;;;;;;;;;;;;;5031511;28;2273;-50
2023/02/07 17:01:23;;;;;;;;;;;;;;;;;;5031626;28;1973;-46
2023/02/07 17:03:50;;;;;;;;;;;;;;;;;;5046765;28;1737;-45
2023/02/07 17:06:21;;;;;;;;;;;;;;;;;;5051595;28;1550;-47
2023/02/07 17:08:49;;;;;;;;;;;;;;;;;;5051377;28;2037;-48
2023/02/07 17:11:24;;;;;;;;;;;;;;;;;;5051676;28;1909;-51
2023/02/07 17:13:55;;;;;;;;;;;;;;;;;;5051368;28;1618;-47
2023/02/07 17:16:23;;;;;;;;;;;;;;;;;;5051550;28;1613;-47
2023/02/07 17:18:50;;;;;;;;;;;;;;;;;;5051296;28;1774;-46
2023/02/07 17:21:17;;;;;;;;;;;;;;;;;;5051514;28;2275;-46
2023/02/07 17:23:45;;;;;;;;;;;;;;;;;;5051687;28;2249;-54
2023/02/07 17:26:24;;;;;;;;;;;;;;;;;;5051306;28;1855;-47
2023/02/07 17:28:52;;;;;;;;;;;;;;;;;;5050415;28;1914;-46
2023/02/07 17:31:19;;;;;;;;;;;;;;;;;;5051073;28;1879;-48
2023/02/07 17:33:48;;;;;;;;;;;;;;;;;;5051156;28;1994;-50